Time;durP1;ratioP1;P1;durP2;ratioP2;P2;SDS_P1;SDS_P2;PMS_P1;PMS_P2;Temp;Humidity;BMP_temperature;BMP_pressure;BME280_temperature;BME280_humidity;BME280_pressure;Samples;Min_cycle;Max_cycle;Signal;HPM_P1;HPM_P2
2022/03/24 00:01:15;;;;;;;18.77;9.13;;;;;;;5.00;42.47;99846.25;5028071;28;20188;-87
2022/03/24 00:03:41;;;;;;;13.63;7.07;;;;;;;4.25;43.64;99780.50;5041316;28;20169;-85
2022/03/24 00:06:07;;;;;;;13.90;6.60;;;;;;;5.41;44.46;100036.66;5035011;28;20432;-86
2022/03/24 00:08:33;;;;;;;12.00;6.30;;;;;;;3.61;44.85;99742.25;5049559;28;20174;-84
2022/03/24 00:10:59;;;;;;;12.83;7.10;;;;;;;5.03;45.51;100014.59;5032698;28;20449;-85
2022/03/24 00:13:24;;;;;;;16.90;8.10;;;;;;;5.73;45.23;100127.78;5062890;28;20185;-88
2022/03/24 00:15:50;;;;;;;18.33;8.60;;;;;;;3.63;45.00;99760.75;5044351;28;20876;-87
2022/03/24 00:18:16;;;;;;;17.07;8.13;;;;;;;4.11;45.78;99858.03;5044652;28;20226;-86
2022/03/24 00:20:41;;;;;;;17.00;8.30;;;;;;;3.55;46.07;99773.56;5036885;28;20271;-87
2022/03/24 00:23:06;;;;;;;16.33;7.37;;;;;;;3.76;46.91;99846.06;5040390;28;20193;-87
2022/03/24 00:25:32;;;;;;;15.60;7.77;;;;;;;2.33;47.34;99612.28;5050512;28;20189;-87
2022/03/24 00:27:57;;;;;;;17.70;8.40;;;;;;;4.97;47.65;100081.00;5038981;28;20169;-87
2022/03/24 00:30:23;;;;;;;17.93;8.90;;;;;;;5.19;47.85;100110.31;5052527;28;20184;-86
2022/03/24 00:32:48;;;;;;;19.47;9.70;;;;;;;3.11;47.72;99766.75;5043237;28;20245;-87
2022/03/24 00:35:13;;;;;;;21.30;11.00;;;;;;;3.61;48.46;99840.75;5050153;28;20219;-87
2022/03/24 00:37:39;;;;;;;27.90;13.40;;;;;;;4.79;48.34;100042.84;5049598;28;20197;-88
2022/03/24 00:40:07;;;;;;;57.30;22.50;;;;;;;4.10;48.53;99943.06;5023892;28;20264;-85
2022/03/24 00:42:36;;;;;;;24.63;11.30;;;;;;;4.60;48.40;100018.00;5041419;28;20234;-86
2022/03/24 00:45:06;;;;;;;21.43;10.07;;;;;;;3.29;49.40;99839.88;5042693;28;20547;-87
2022/03/24 00:47:35;;;;;;;24.90;11.60;;;;;;;4.07;50.04;99996.31;5041947;28;20532;-87
2022/03/24 00:50:01;;;;;;;23.90;12.03;;;;;;;2.88;49.61;99804.94;5042110;28;20426;-86
2022/03/24 00:52:26;;;;;;;21.50;9.23;;;;;;;3.63;50.02;99958.50;5042390;28;20529;-87
2022/03/24 00:54:52;;;;;;;19.63;9.47;;;;;;;4.54;49.48;100082.72;5042156;28;20222;-86
2022/03/24 00:57:17;;;;;;;24.40;9.97;;;;;;;4.53;49.82;100080.94;5059800;28;20169;-88
2022/03/24 00:59:42;;;;;;;21.73;10.67;;;;;;;3.85;50.94;99971.94;5040666;28;20995;-87
2022/03/24 01:02:09;;;;;;;22.53;10.73;;;;;;;2.43;50.75;99746.28;5056327;28;20689;-87
2022/03/24 01:04:36;;;;;;;20.07;9.73;;;;;;;1.44;50.53;99560.16;5056198;28;20168;-86
2022/03/24 01:07:03;;;;;;;20.53;10.60;;;;;;;2.94;51.65;99850.44;5056794;28;20552;-87
2022/03/24 01:09:29;;;;;;;23.57;10.00;;;;;;;1.63;51.32;99603.28;5056325;28;20935;-88
2022/03/24 01:11:54;;;;;;;21.20;9.37;;;;;;;2.24;52.42;99753.03;5038483;28;20458;-86
2022/03/24 01:14:22;;;;;;;22.53;10.93;;;;;;;4.00;52.75;100054.19;5017758;28;20177;-87
2022/03/24 01:16:50;;;;;;;25.53;11.50;;;;;;;4.06;52.01;100067.22;5036332;28;20169;-87
2022/03/24 01:19:15;;;;;;;66.57;31.50;;;;;;;4.25;51.89;100066.16;5022631;28;20874;-88
2022/03/24 01:21:41;;;;;;;50.17;14.23;;;;;;;2.60;53.06;99877.59;5051842;28;20419;-86
2022/03/24 01:24:08;;;;;;;31.90;11.83;;;;;;;3.48;54.77;100058.28;5022883;28;20188;-88
2022/03/24 01:26:33;;;;;;;25.87;11.40;;;;;;;2.53;54.95;99926.16;5019534;28;20172;-87
2022/03/24 01:28:59;;;;;;;25.03;10.70;;;;;;;-0.36;55.42;99451.88;5036198;28;20479;-87
2022/03/24 01:31:25;;;;;;;23.80;10.93;;;;;;;-0.80;56.15;99356.97;5025466;28;20253;-87
2022/03/24 01:33:50;;;;;;;26.33;11.27;;;;;;;1.01;55.92;99677.91;5038581;28;20181;-86
2022/03/24 01:36:16;;;;;;;26.33;11.70;;;;;;;2.58;56.10;99932.44;5036091;28;20186;-86
2022/03/24 01:38:42;;;;;;;29.17;13.97;;;;;;;2.12;55.97;99821.94;5043121;28;20236;-88
2022/03/24 01:41:08;;;;;;;24.50;12.87;;;;;;;0.66;55.61;99576.00;5037925;28;20223;-87
2022/03/24 01:43:34;;;;;;;28.40;13.33;;;;;;;1.71;56.11;99776.97;5036131;28;20412;-87
2022/03/24 01:46:00;;;;;;;24.93;11.80;;;;;;;3.11;56.83;100048.50;5045613;28;20181;-88
2022/03/24 01:48:26;;;;;;;39.73;20.83;;;;;;;1.62;57.06;99806.13;5042793;28;20432;-85
2022/03/24 01:50:52;;;;;;;23.87;12.87;;;;;;;1.65;57.55;99805.50;5052101;28;20158;-85
2022/03/24 01:53:18;;;;;;;23.53;12.10;;;;;;;3.04;57.77;100031.25;5039094;28;20495;-87
2022/03/24 01:55:45;;;;;;;25.73;12.97;;;;;;;2.86;57.70;100003.06;5036780;28;20213;-87
2022/03/24 01:58:12;;;;;;;26.00;12.53;;;;;;;3.12;57.75;100026.13;5035409;28;20201;-87
2022/03/24 02:00:38;;;;;;;29.47;11.37;;;;;;;1.71;57.10;99781.94;5017402;28;20440;-86
2022/03/24 02:03:05;;;;;;;20.90;11.10;;;;;;;2.73;56.90;99948.69;5034819;28;20401;-87
2022/03/24 02:05:35;;;;;;;25.07;10.33;;;;;;;0.95;57.28;99649.06;5051561;28;20447;-87
2022/03/24 02:08:03;;;;;;;20.00;9.60;;;;;;;2.83;57.23;100018.69;5036870;28;20400;-88
2022/03/24 02:10:30;;;;;;;22.50;9.30;;;;;;;2.89;57.88;100029.22;5054474;28;20407;-85
2022/03/24 02:12:56;;;;;;;21.87;9.80;;;;;;;2.67;57.68;100000.66;5053939;28;20443;-88
2022/03/24 02:15:23;;;;;;;25.83;11.70;;;;;;;1.61;58.48;99799.41;5053368;28;20426;-86
2022/03/24 02:17:48;;;;;;;37.47;13.07;;;;;;;2.75;57.90;100026.31;5053439;28;20447;-87
2022/03/24 02:20:14;;;;;;;32.83;11.90;;;;;;;2.59;58.19;100023.25;5036010;28;21014;-87
2022/03/24 02:22:40;;;;;;;26.63;11.90;;;;;;;2.89;57.54;100036.72;5036519;28;20185;-88
2022/03/24 02:25:09;;;;;;;30.93;13.60;;;;;;;0.75;58.09;99674.78;5055215;28;20166;-86
2022/03/24 02:27:36;;;;;;;31.20;15.00;;;;;;;1.15;57.97;99726.44;5039233;28;20247;-85
2022/03/24 02:30:04;;;;;;;23.90;11.27;;;;;;;2.11;58.24;99897.63;5056641;28;20398;-86
2022/03/24 02:32:29;;;;;;;19.07;10.13;;;;;;;1.20;58.85;99790.00;5054971;28;20461;-86
2022/03/24 02:34:55;;;;;;;17.83;9.47;;;;;;;0.67;58.65;99674.88;5035988;28;20432;-85
2022/03/24 02:37:22;;;;;;;17.13;8.93;;;;;;;2.05;58.64;99937.94;5054041;28;20246;-86
2022/03/24 02:39:56;;;;;;;15.53;7.83;;;;;;;-0.58;59.34;99517.88;5022879;28;20260;-87
2022/03/24 02:42:25;;;;;;;21.13;9.17;;;;;;;0.06;60.60;99654.59;5017849;28;20461;-86
2022/03/24 02:44:54;;;;;;;18.87;9.17;;;;;;;1.45;61.00;99901.13;4996107;28;20413;-86
2022/03/24 02:47:20;;;;;;;20.53;10.10;;;;;;;2.25;60.95;100014.56;5012921;28;20414;-86
2022/03/24 02:49:48;;;;;;;26.97;10.47;;;;;;;2.29;60.68;100002.44;4995912;28;20417;-86
2022/03/24 02:52:14;;;;;;;17.43;10.17;;;;;;;0.33;60.46;99669.47;5013241;28;20549;-86
2022/03/24 02:54:40;;;;;;;18.03;9.27;;;;;;;2.35;60.03;100012.97;4995539;28;20410;-86
2022/03/24 02:57:07;;;;;;;18.33;9.63;;;;;;;1.39;60.15;99848.22;5013024;28;20913;-86
2022/03/24 02:59:33;;;;;;;17.23;9.73;;;;;;;2.02;60.20;99941.78;5012721;28;20457;-86
2022/03/24 03:02:06;;;;;;;28.27;11.97;;;;;;;0.82;59.20;99721.06;5012999;28;20441;-86
2022/03/24 03:04:32;;;;;;;26.03;12.93;;;;;;;1.45;60.04;99846.25;4995112;28;20502;-86
2022/03/24 03:07:02;;;;;;;28.33;13.13;;;;;;;0.32;59.97;99640.34;5012771;28;20413;-87
2022/03/24 03:09:28;;;;;;;22.20;10.70;;;;;;;-0.23;59.78;99574.06;4995353;28;20445;-86
2022/03/24 03:11:53;;;;;;;24.70;9.87;;;;;;;1.73;60.32;99947.66;5012807;28;20405;-86
2022/03/24 03:14:20;;;;;;;24.90;11.97;;;;;;;-1.06;60.81;99482.97;4997848;28;20420;-86
2022/03/24 03:16:46;;;;;;;22.90;10.53;;;;;;;-0.88;61.43;99531.78;5015550;28;20226;-86
2022/03/24 03:19:19;;;;;;;23.50;10.77;;;;;;;0.24;60.98;99688.59;5013415;28;20445;-86
2022/03/24 03:21:48;;;;;;;41.47;18.93;;;;;;;-0.23;60.85;99593.97;4996218;28;20480;-87
2022/03/24 03:24:14;;;;;;;45.40;21.87;;;;;;;2.20;61.06;100003.25;5019026;28;20485;-86
2022/03/24 03:26:40;;;;;;;50.50;22.47;;;;;;;0.88;61.15;99781.38;5013037;28;20405;-86
2022/03/24 03:29:07;;;;;;;35.00;17.37;;;;;;;2.14;61.53;99997.78;5029072;28;20185;-86
2022/03/24 03:31:33;;;;;;;31.77;14.20;;;;;;;1.67;61.52;99916.31;5032044;28;20688;-86
2022/03/24 03:33:58;;;;;;;28.07;13.10;;;;;;;-0.22;61.76;99615.63;5034649;28;20939;-86
2022/03/24 03:36:25;;;;;;;35.90;16.67;;;;;;;2.19;61.87;100004.03;5034589;28;20413;-86
2022/03/24 03:38:51;;;;;;;25.17;12.17;;;;;;;1.80;62.03;99981.50;5028195;28;20234;-85
2022/03/24 03:41:17;;;;;;;25.47;12.40;;;;;;;0.02;61.71;99661.66;5033709;28;20396;-86
2022/03/24 03:43:43;;;;;;;27.10;12.03;;;;;;;1.83;62.64;99998.38;5014532;28;20431;-86
2022/03/24 03:46:10;;;;;;;29.73;14.43;;;;;;;0.93;63.12;99852.44;5031992;28;20405;-86
2022/03/24 03:48:37;;;;;;;29.63;13.70;;;;;;;1.72;63.97;100025.78;5039898;28;20419;-86
2022/03/24 03:51:03;;;;;;;33.17;13.90;;;;;;;-0.29;62.61;99648.13;5037381;28;20923;-86
2022/03/24 03:53:29;;;;;;;28.43;13.33;;;;;;;1.09;62.89;99858.91;5035843;28;20409;-87
2022/03/24 03:55:54;;;;;;;33.30;14.03;;;;;;;1.05;63.52;99860.97;5027163;28;20250;-86
2022/03/24 03:58:19;;;;;;;32.63;15.60;;;;;;;0.14;62.88;99693.47;5037240;28;20699;-85
2022/03/24 04:00:55;;;;;;;36.10;14.10;;;;;;;0.47;62.19;99737.88;5038871;28;20631;-87
2022/03/24 04:03:30;;;;;;;26.17;11.93;;;;;;;0.99;62.17;99838.03;5040857;28;20187;-86
2022/03/24 04:06:01;;;;;;;31.40;13.73;;;;;;;1.59;63.73;99985.50;5039119;28;20404;-86
2022/03/24 04:08:28;;;;;;;36.00;16.37;;;;;;;1.27;63.21;99936.91;5037742;28;20407;-86
2022/03/24 04:10:54;;;;;;;30.33;14.20;;;;;;;1.31;63.65;100000.41;5055007;28;20787;-86
2022/03/24 04:13:20;;;;;;;33.72;16.70;;;;;;;1.08;64.04;99959.34;5054837;28;20438;-86
2022/03/24 04:15:46;;;;;;;32.77;13.97;;;;;;;1.33;64.53;99989.81;5055719;28;20170;-86
2022/03/24 04:18:13;;;;;;;28.83;14.33;;;;;;;1.04;64.70;99924.91;5056348;28;20193;-86
2022/03/24 04:20:39;;;;;;;117.10;44.37;;;;;;;1.35;64.37;99978.34;5054925;28;20169;-86
2022/03/24 04:23:05;;;;;;;181.65;64.35;;;;;;;1.47;64.09;99978.56;5037053;28;20403;-86
2022/03/24 04:25:32;;;;;;;40.38;18.17;;;;;;;1.61;63.79;99968.19;5055705;28;20172;-86
2022/03/24 04:27:58;;;;;;;58.25;25.33;;;;;;;1.72;63.43;99978.34;5055627;28;20158;-86
2022/03/24 04:30:26;;;;;;;85.70;33.80;;;;;;;1.36;63.28;99892.81;5055685;28;20192;-86
2022/03/24 04:32:52;;;;;;;126.30;48.70;;;;;;;1.48;62.74;99888.91;5037402;28;20169;-86
2022/03/24 04:35:18;;;;;;;114.73;45.77;;;;;;;1.48;62.27;99901.38;5032948;28;20439;-86
2022/03/24 04:37:44;;;;;;;120.73;44.50;;;;;;;1.59;61.78;99904.81;5036194;28;20448;-86
2022/03/24 04:40:11;;;;;;;113.93;46.07;;;;;;;1.70;62.49;99889.13;5049141;28;20468;-86
2022/03/24 04:42:39;;;;;;;109.30;46.73;;;;;;;2.16;62.15;99968.81;5052449;28;20409;-85
2022/03/24 04:45:05;;;;;;;107.53;45.27;;;;;;;2.30;61.55;99968.34;5038743;28;20408;-86
2022/03/24 04:47:31;;;;;;;66.97;27.77;;;;;;;-0.69;61.41;99443.22;5037224;28;20389;-86
2022/03/24 04:49:57;;;;;;;38.87;16.67;;;;;;;1.45;61.48;99850.34;5039237;28;20405;-86
2022/03/24 04:52:22;;;;;;;37.80;14.93;;;;;;;-0.39;61.28;99483.94;5036885;28;20652;-86
2022/03/24 04:54:48;;;;;;;36.83;17.47;;;;;;;2.26;60.50;99927.25;5017549;28;20174;-88
2022/03/24 04:57:14;;;;;;;41.63;22.70;;;;;;;0.36;59.76;99571.75;5035142;28;20550;-87
2022/03/24 04:59:39;;;;;;;55.17;27.80;;;;;;;1.85;59.69;99808.06;5044322;28;20281;-87
2022/03/24 05:02:05;;;;;;;65.27;28.50;;;;;;;1.85;59.63;99834.63;5036912;28;20614;-86
2022/03/24 05:04:30;;;;;;;63.87;25.27;;;;;;;0.86;59.45;99633.34;5054360;28;20165;-86
2022/03/24 05:06:56;;;;;;;65.30;29.13;;;;;;;0.59;58.73;99577.09;5036761;28;20205;-85
2022/03/24 05:09:21;;;;;;;73.37;30.37;;;;;;;2.61;58.31;99921.84;5036718;28;20167;-85
2022/03/24 05:11:46;;;;;;;72.73;24.57;;;;;;;1.54;57.91;99752.22;5037434;28;20180;-86
2022/03/24 05:14:12;;;;;;;72.80;23.97;;;;;;;2.19;58.87;99842.59;5054776;28;20165;-86
2022/03/24 05:16:38;;;;;;;71.30;32.10;;;;;;;2.84;59.64;99977.97;5036939;28;20249;-86
2022/03/24 05:19:04;;;;;;;72.17;30.37;;;;;;;2.41;59.90;99897.69;5046349;28;20208;-86
2022/03/24 05:21:31;;;;;;;78.17;27.37;;;;;;;3.12;59.06;99987.72;5054844;28;20400;-86
2022/03/24 05:23:57;;;;;;;96.77;39.57;;;;;;;2.50;58.68;99833.47;5068479;28;20172;-86
2022/03/24 05:26:24;;;;;;;92.93;38.20;;;;;;;3.05;58.51;99932.97;5075205;28;20968;-87
2022/03/24 05:28:50;;;;;;;91.10;40.70;;;;;;;3.39;58.83;99959.94;5065801;28;20162;-86
2022/03/24 05:31:16;;;;;;;57.60;26.33;;;;;;;2.31;59.27;99751.16;5038162;28;20431;-86
2022/03/24 05:33:43;;;;;;;38.90;18.87;;;;;;;2.86;58.20;99796.44;5058116;28;20435;-86
2022/03/24 05:36:09;;;;;;;85.77;36.10;;;;;;;4.08;57.65;99950.47;5051552;28;20249;-88
2022/03/24 05:38:35;;;;;;;137.80;58.10;;;;;;;2.46;56.66;99643.22;5052381;28;20871;-85
2022/03/24 05:41:01;;;;;;;120.13;52.53;;;;;;;4.52;56.33;99956.38;5057930;28;20439;-88
2022/03/24 05:43:27;;;;;;;97.60;45.50;;;;;;;4.07;55.96;99866.03;5039385;28;20415;-87
2022/03/24 05:45:52;;;;;;;84.47;39.23;;;;;;;2.58;56.32;99559.25;5054731;28;20173;-86
2022/03/24 05:48:18;;;;;;;53.73;28.00;;;;;;;5.13;55.55;99960.94;5060417;28;20550;-87
2022/03/24 05:50:44;;;;;;;37.07;17.67;;;;;;;3.73;55.15;99704.00;5073391;28;20188;-87
2022/03/24 05:53:09;;;;;;;39.30;20.90;;;;;;;4.16;55.37;99731.47;5074500;28;20564;-86
2022/03/24 05:55:37;;;;;;;36.80;19.87;;;;;;;5.74;55.07;99954.56;5057460;28;20577;-87
2022/03/24 05:58:04;;;;;;;23.90;11.40;;;;;;;4.78;53.68;99753.53;5083558;28;20274;-87
2022/03/24 06:00:29;;;;;;;22.57;10.30;;;;;;;6.55;52.79;99958.59;5096307;28;20407;-87
2022/03/24 06:02:55;;;;;;;25.00;10.60;;;;;;;5.69;50.74;99717.28;5064992;28;20437;-87
2022/03/24 06:05:22;;;;;;;25.37;10.07;;;;;;;7.47;49.61;99963.94;5080033;28;20181;-87
2022/03/24 06:07:48;;;;;;;23.13;10.00;;;;;;;5.86;47.92;99620.47;5079245;28;20227;-88
2022/03/24 06:10:14;;;;;;;20.77;9.17;;;;;;;6.75;47.17;99688.25;5080312;28;20434;-84
2022/03/24 06:12:39;;;;;;;16.57;8.30;;;;;;;5.52;45.63;99440.75;5048881;28;20183;-85
2022/03/24 06:15:07;;;;;;;20.73;8.43;;;;;;;7.56;45.39;99731.09;5063497;28;20267;-88
2022/03/24 06:17:33;;;;;;;20.00;8.37;;;;;;;9.10;44.48;99955.56;5028084;28;20316;-87
2022/03/24 06:20:01;;;;;;;11.57;7.07;;;;;;;9.19;44.05;99956.09;5042568;28;20483;-88
2022/03/24 06:22:27;;;;;;;15.60;6.50;;;;;;;8.43;43.83;99799.34;5061508;28;20161;-85
2022/03/24 06:24:53;;;;;;;18.13;7.60;;;;;;;8.70;43.20;99804.34;5058166;28;20185;-88
2022/03/24 06:27:18;;;;;;;16.47;8.10;;;;;;;7.52;43.23;99578.06;5063677;28;20170;-87
2022/03/24 06:29:44;;;;;;;15.07;6.67;;;;;;;7.30;42.39;99499.50;5040362;28;20641;-86
2022/03/24 06:32:09;;;;;;;14.27;7.17;;;;;;;9.97;41.97;99947.94;5056873;28;20177;-87
2022/03/24 06:34:34;;;;;;;17.07;8.27;;;;;;;9.13;41.45;99739.41;5063205;28;20685;-86
2022/03/24 06:37:01;;;;;;;16.13;7.53;;;;;;;6.70;40.54;99303.09;5055787;28;20181;-85
2022/03/24 06:39:26;;;;;;;13.73;7.50;;;;;;;10.46;39.65;99938.81;5068554;28;20224;-86
2022/03/24 06:41:52;;;;;;;17.73;8.00;;;;;;;10.72;39.94;99940.16;5056769;28;20192;-87
2022/03/24 06:44:18;;;;;;;12.37;6.13;;;;;;;10.18;39.76;99859.72;5075525;28;20184;-86
2022/03/24 06:46:44;;;;;;;18.90;8.67;;;;;;;10.29;40.14;99857.75;5056148;28;20238;-88
2022/03/24 06:49:10;;;;;;;14.37;7.10;;;;;;;9.82;39.79;99729.66;5069148;28;20184;-88
2022/03/24 06:51:36;;;;;;;19.10;9.03;;;;;;;10.39;39.67;99829.56;5052612;28;20216;-88
2022/03/24 06:54:02;;;;;;;24.43;11.63;;;;;;;9.40;39.60;99638.97;5045629;28;20174;-88
2022/03/24 06:56:28;;;;;;;18.83;9.30;;;;;;;10.29;39.33;99739.69;5020583;28;20186;-90
2022/03/24 06:58:53;;;;;;;15.93;7.63;;;;;;;11.31;38.73;99919.50;5044279;28;20220;-89
2022/03/24 07:01:19;;;;;;;14.73;7.73;;;;;;;10.73;38.11;99802.63;5050653;28;20209;-89
2022/03/24 07:03:45;;;;;;;19.77;9.17;;;;;;;8.90;38.15;99441.91;5021945;28;20212;-90
2022/03/24 07:06:11;;;;;;;15.47;7.27;;;;;;;11.79;37.71;99924.41;5033181;28;20196;-90
2022/03/24 07:08:37;;;;;;;14.13;7.13;;;;;;;9.97;37.50;99598.91;5025205;28;20180;-88
2022/03/24 07:11:06;;;;;;;15.00;8.00;;;;;;;10.81;37.61;99714.38;5038529;28;20189;-90
2022/03/24 07:13:32;;;;;;;20.57;8.77;;;;;;;10.34;37.52;99606.66;5041753;28;20213;-88
2022/03/24 07:15:58;;;;;;;24.00;10.07;;;;;;;11.02;36.95;99690.03;5031401;28;20197;-88
2022/03/24 07:18:23;;;;;;;12.27;6.77;;;;;;;11.58;35.94;99771.22;5024403;28;20239;-89
2022/03/24 07:20:50;;;;;;;21.57;7.10;;;;;;;11.67;35.93;99789.41;5052907;28;20323;-89
2022/03/24 07:23:16;;;;;;;13.13;7.20;;;;;;;10.90;35.72;99614.38;5051702;28;20192;-87
2022/03/24 07:25:42;;;;;;;14.37;7.83;;;;;;;10.77;35.88;99552.97;5036816;28;20644;-89
2022/03/24 07:28:08;;;;;;;20.23;9.87;;;;;;;13.13;35.41;99939.78;5023971;28;20180;-89
2022/03/24 07:30:34;;;;;;;24.63;12.93;;;;;;;13.21;35.87;99914.69;5036964;28;20319;-88
2022/03/24 07:33:00;;;;;;;14.47;7.10;;;;;;;11.54;34.64;99605.41;5043910;28;20296;-87
2022/03/24 07:35:29;;;;;;;15.13;8.40;;;;;;;13.44;34.50;99919.03;5052429;28;20185;-89
2022/03/24 07:37:55;;;;;;;18.73;9.13;;;;;;;13.20;35.04;99885.00;5043965;28;20211;-89
2022/03/24 07:40:24;;;;;;;16.37;8.70;;;;;;;11.76;34.63;99586.91;5055237;28;20225;-89
2022/03/24 07:42:52;;;;;;;18.33;9.55;;;;;;;13.86;33.88;99889.34;5022623;28;20784;-88
2022/03/24 07:45:18;;;;;;;23.57;12.90;;;;;;;12.37;34.14;99644.47;5053800;28;20272;-89
2022/03/24 07:48:16;;;;;;;16.70;9.33;;;;;;;14.35;34.26;99923.50;5037353;28;20319;-90
2022/03/24 07:50:45;;;;;;;15.93;7.80;;;;;;;13.07;34.23;99728.56;5057101;28;20177;-90
2022/03/24 07:53:14;;;;;;;14.40;7.20;;;;;;;13.91;34.45;99918.38;5033046;28;20665;-90
2022/03/24 07:55:41;;;;;;;16.13;8.27;;;;;;;11.97;33.82;99495.63;5032489;28;20190;-90
2022/03/24 07:58:08;;;;;;;13.50;7.27;;;;;;;13.73;34.09;99772.63;5029481;28;20204;-89
2022/03/24 08:00:34;;;;;;;16.53;7.60;;;;;;;15.09;33.36;99926.16;5064688;28;20199;-88
2022/03/24 08:03:00;;;;;;;15.80;8.17;;;;;;;13.79;32.92;99671.06;5052229;28;20344;-89
2022/03/24 08:05:26;;;;;;;34.43;14.60;;;;;;;15.67;32.59;99903.44;5041884;28;20184;-89
2022/03/24 08:07:56;;;;;;;20.77;9.70;;;;;;;15.58;32.44;99904.81;5023636;28;20623;-90
2022/03/24 08:10:22;;;;;;;22.73;10.27;;;;;;;14.89;32.32;99778.44;5043847;28;20177;-89
2022/03/24 08:12:48;;;;;;;16.60;7.87;;;;;;;14.40;32.64;99732.59;5037431;28;20607;-89
2022/03/24 08:15:13;;;;;;;40.87;15.67;;;;;;;12.89;32.61;99458.47;5024668;28;20193;-89
2022/03/24 08:17:38;;;;;;;16.73;9.30;;;;;;;13.77;32.27;99532.72;5032195;28;20201;-81
2022/03/24 08:20:06;;;;;;;14.10;8.17;;;;;;;15.67;32.65;99898.34;5053767;28;20651;-80
2022/03/24 08:22:31;;;;;;;12.77;6.87;;;;;;;15.78;31.99;99889.31;5042416;28;20232;-81
2022/03/24 08:24:57;;;;;;;16.50;8.27;;;;;;;15.34;31.92;99796.06;5036389;28;20181;-79
2022/03/24 08:27:23;;;;;;;41.77;14.70;;;;;;;14.01;31.33;99528.41;5043919;28;20242;-80
2022/03/24 08:29:48;;;;;;;15.40;9.47;;;;;;;15.07;31.55;99722.91;5044577;28;20197;-80
2022/03/24 08:32:14;;;;;;;18.97;9.90;;;;;;;16.65;30.85;99868.84;5038616;28;20220;-82
2022/03/24 08:34:40;;;;;;;14.27;7.63;;;;;;;14.31;30.95;99519.19;5041802;28;20181;-80
2022/03/24 08:37:06;;;;;;;15.03;8.20;;;;;;;15.88;30.62;99773.88;5045773;28;20200;-79
2022/03/24 08:39:32;;;;;;;20.90;9.60;;;;;;;16.87;30.73;99866.03;5054984;28;20229;-80
2022/03/24 08:41:57;;;;;;;16.30;8.90;;;;;;;15.78;29.64;99677.44;5049355;28;20536;-80
2022/03/24 08:44:23;;;;;;;14.07;8.27;;;;;;;16.22;29.70;99782.47;5047227;28;20181;-80
2022/03/24 08:46:48;;;;;;;19.27;8.90;;;;;;;16.75;29.30;99846.16;5065534;28;20198;-80
2022/03/24 08:49:13;;;;;;;15.00;7.77;;;;;;;15.75;29.68;99687.56;5048600;28;20184;-79
2022/03/24 08:51:39;;;;;;;14.63;8.80;;;;;;;15.22;29.79;99545.69;5044235;28;20169;-80
2022/03/24 08:54:05;;;;;;;14.03;8.23;;;;;;;16.69;28.43;99753.06;5045786;28;20181;-79
2022/03/24 08:56:31;;;;;;;15.27;8.47;;;;;;;15.77;27.54;99623.75;5037404;28;20188;-79
2022/03/24 08:58:56;;;;;;;16.30;8.13;;;;;;;15.65;28.52;99569.84;5046301;28;20657;-80
2022/03/24 09:01:22;;;;;;;15.13;8.20;;;;;;;17.22;28.93;99854.16;5041264;28;20178;-81
2022/03/24 09:03:49;;;;;;;17.07;8.57;;;;;;;17.70;27.68;99788.75;5050000;28;20611;-80
2022/03/24 09:06:15;;;;;;;17.13;8.10;;;;;;;16.56;27.24;99501.44;5038053;28;20182;-80
2022/03/24 09:08:42;;;;;;;15.60;8.37;;;;;;;17.11;27.01;99632.16;5031358;28;20661;-80
2022/03/24 09:11:08;;;;;;;17.77;9.73;;;;;;;17.71;27.23;99748.63;5019906;28;20269;-80
2022/03/24 09:13:35;;;;;;;17.30;10.20;;;;;;;18.22;25.79;99758.22;5060999;28;20653;-81
2022/03/24 09:16:01;;;;;;;24.77;15.93;;;;;;;18.50;24.95;99841.66;5045772;28;20190;-80
2022/03/24 09:18:26;;;;;;;20.70;11.57;;;;;;;18.21;25.16;99730.84;5053182;28;20243;-81
2022/03/24 09:20:52;;;;;;;18.33;9.27;;;;;;;19.05;25.19;99829.81;5051230;28;20724;-81
2022/03/24 09:23:17;;;;;;;16.97;9.37;;;;;;;18.87;24.87;99773.06;5028941;28;20178;-80
2022/03/24 09:25:43;;;;;;;16.37;9.50;;;;;;;17.95;24.89;99693.63;5065798;28;20204;-80
2022/03/24 09:28:10;;;;;;;15.30;9.93;;;;;;;17.31;24.54;99512.31;5071120;28;20215;-81
2022/03/24 09:30:36;;;;;;;16.67;10.40;;;;;;;19.61;23.99;99823.03;5071496;28;20164;-81
2022/03/24 09:33:02;;;;;;;16.03;9.77;;;;;;;18.05;24.23;99699.78;5045876;28;20231;-80
2022/03/24 09:35:28;;;;;;;14.33;9.47;;;;;;;18.80;24.40;99838.78;5053126;28;20166;-80
2022/03/24 09:37:53;;;;;;;23.43;10.73;;;;;;;18.48;24.37;99771.56;5062686;28;20173;-80
2022/03/24 09:40:19;;;;;;;16.83;9.47;;;;;;;17.13;23.96;99424.97;5041274;28;20225;-81
2022/03/24 09:42:44;;;;;;;28.97;12.27;;;;;;;18.12;23.95;99581.19;5051939;28;20177;-81
2022/03/24 09:45:11;;;;;;;31.23;13.00;;;;;;;18.78;23.59;99743.88;5035526;28;20208;-81
2022/03/24 09:47:37;;;;;;;21.23;12.30;;;;;;;17.57;23.21;99558.91;5056411;28;20282;-80
2022/03/24 09:50:04;;;;;;;19.13;11.10;;;;;;;19.33;23.01;99773.81;5071513;28;20189;-81
2022/03/24 09:52:29;;;;;;;23.07;13.23;;;;;;;19.72;22.67;99816.34;5060133;28;20634;-80
2022/03/24 09:54:55;;;;;;;26.60;12.53;;;;;;;19.71;22.87;99796.63;5037235;28;20184;-81
2022/03/24 09:57:21;;;;;;;17.17;10.47;;;;;;;19.16;23.19;99816.31;5055858;28;20549;-83
2022/03/24 09:59:47;;;;;;;17.77;10.27;;;;;;;17.63;23.13;99564.13;5041429;28;20643;-81
2022/03/24 10:02:13;;;;;;;20.27;12.63;;;;;;;19.64;23.49;99798.22;5034722;28;20185;-81
2022/03/24 10:04:45;;;;;;;20.50;11.80;;;;;;;19.92;22.80;99784.91;5048654;28;20691;-81
2022/03/24 10:07:10;;;;;;;17.90;11.20;;;;;;;19.76;22.38;99788.13;5056600;28;20174;-81
2022/03/24 10:09:47;;;;;;;18.47;11.83;;;;;;;18.36;22.71;99573.91;5052473;28;20156;-81
2022/03/24 10:12:24;;;;;;;26.70;12.83;;;;;;;19.98;23.01;99789.25;5036458;28;20252;-82
2022/03/24 10:15:01;;;;;;;21.20;12.57;;;;;;;19.78;22.79;99672.50;5035841;28;20195;-81
2022/03/24 10:17:27;;;;;;;20.53;11.40;;;;;;;19.62;22.64;99768.22;5029927;28;20173;-82
2022/03/24 10:20:01;;;;;;;19.43;11.10;;;;;;;19.81;22.98;99776.19;5054768;28;20374;-81
2022/03/24 10:22:27;;;;;;;24.80;11.80;;;;;;;20.04;22.46;99732.78;5064923;28;20548;-80
2022/03/24 10:24:53;;;;;;;19.00;11.07;;;;;;;20.19;22.20;99744.97;5049818;28;20212;-81
2022/03/24 10:27:29;;;;;;;17.33;11.37;;;;;;;20.55;22.04;99769.34;5050902;28;20601;-81
2022/03/24 10:29:57;;;;;;;19.60;11.83;;;;;;;20.81;21.96;99769.59;5047314;28;20606;-81
2022/03/24 10:32:28;;;;;;;16.60;10.10;;;;;;;20.16;22.65;99768.91;5036762;28;20181;-82
2022/03/24 10:35:16;;;;;;;18.93;10.27;;;;;;;19.03;23.10;99716.88;5029925;28;20188;-81
2022/03/24 10:37:52;;;;;;;18.07;10.27;;;;;;;19.67;22.84;99761.44;5053149;28;20197;-81
2022/03/24 10:40:18;;;;;;;18.10;10.67;;;;;;;19.74;22.57;99753.84;5037091;28;20256;-81
2022/03/24 10:42:44;;;;;;;16.23;10.57;;;;;;;19.54;22.78;99751.84;5039544;28;20173;-81
2022/03/24 10:45:12;;;;;;;19.07;10.80;;;;;;;20.08;22.69;99756.84;5039980;28;20174;-81
2022/03/24 10:48:02;;;;;;;18.67;10.60;;;;;;;20.12;22.03;99732.88;5052525;28;20238;-83
2022/03/24 10:50:42;;;;;;;18.23;10.43;;;;;;;20.42;21.73;99741.78;5051472;28;20649;-81
2022/03/24 10:53:07;;;;;;;17.53;10.63;;;;;;;19.69;22.81;99736.66;5045199;28;20535;-83
2022/03/24 10:55:45;;;;;;;16.40;10.50;;;;;;;18.77;22.48;99571.97;5040513;28;20208;-81
2022/03/24 10:58:17;;;;;;;18.27;9.67;;;;;;;19.63;22.37;99700.59;5042579;28;20190;-82
2022/03/24 11:00:47;;;;;;;28.00;12.50;;;;;;;19.78;22.63;99711.91;5043949;28;20665;-82
2022/03/24 11:03:15;;;;;;;23.10;12.00;;;;;;;19.68;22.56;99578.22;5025881;28;20185;-82
2022/03/24 11:05:41;;;;;;;17.30;10.53;;;;;;;18.88;22.51;99549.00;5043922;28;20603;-82
2022/03/24 11:08:09;;;;;;;18.90;10.60;;;;;;;19.56;22.12;99645.72;5047880;28;20284;-82
2022/03/24 11:10:47;;;;;;;22.93;12.10;;;;;;;19.79;21.98;99707.66;5054009;28;20653;-82
2022/03/24 11:13:22;;;;;;;17.17;10.10;;;;;;;20.09;21.74;99708.00;5037206;28;20173;-82
2022/03/24 11:15:50;;;;;;;17.03;10.97;;;;;;;18.10;21.63;99381.31;5035082;28;20242;-82
2022/03/24 11:18:16;;;;;;;15.27;10.30;;;;;;;19.23;21.36;99514.34;5038768;28;20190;-82
2022/03/24 11:20:42;;;;;;;20.67;11.60;;;;;;;19.54;21.32;99484.75;5048606;28;20564;-82
2022/03/24 11:23:31;;;;;;;15.30;10.30;;;;;;;20.83;21.01;99703.53;5050964;28;20251;-82